Time;durP1;ratioP1;P1;durP2;ratioP2;P2;SDS_P1;SDS_P2;PMS_P1;PMS_P2;Temp;Humidity;BMP_temperature;BMP_pressure;BME280_temperature;BME280_humidity;BME280_pressure;Samples;Min_cycle;Max_cycle;Signal;HPM_P1;HPM_P2
2022/01/06 00:02:26;;;;;;;0.10;0.10;;;;;;;6.61;62.18;101674.31;5037721;28;20025;-83
2022/01/06 00:04:52;;;;;;;0.10;0.10;;;;;;;6.62;62.18;101679.59;5036512;28;20022;-85
2022/01/06 00:07:18;;;;;;;0.20;0.20;;;;;;;6.65;62.09;101670.84;5036577;28;20385;-84
2022/01/06 00:09:47;;;;;;;0.10;0.10;;;;;;;6.66;62.24;101666.47;5037152;28;20033;-84
2022/01/06 00:12:16;;;;;;;0.50;0.32;;;;;;;6.63;62.03;101669.97;5037664;28;20384;-85
2022/01/06 00:23:35;;;;;;;0.30;0.30;;;;;;;6.59;61.99;101686.56;5036691;28;20556;-84
2022/01/06 00:25:47;;;;;;;0.10;0.10;;;;;;;6.53;62.20;101692.69;5036717;28;20040;-84
2022/01/06 00:28:13;;;;;;;0.10;0.10;;;;;;;6.48;62.04;101686.47;5036212;28;20457;-85
2022/01/06 00:30:40;;;;;;;0.10;0.10;;;;;;;6.40;62.46;101683.75;5036736;28;20060;-85
2022/01/06 00:33:06;;;;;;;0.10;0.10;;;;;;;6.41;62.37;101687.28;5037371;28;20032;-84
2022/01/06 00:35:32;;;;;;;0.10;0.10;;;;;;;6.43;62.41;101689.06;5036110;28;20029;-84
2022/01/06 00:37:58;;;;;;;0.10;0.10;;;;;;;6.43;62.35;101681.16;5036965;28;20053;-85
2022/01/06 00:40:24;;;;;;;0.13;0.13;;;;;;;6.37;62.53;101691.63;5037309;28;20029;-84
2022/01/06 00:42:51;;;;;;;0.20;0.20;;;;;;;6.33;62.35;101689.84;5037081;28;20033;-83
2022/01/06 00:45:17;;;;;;;0.10;0.10;;;;;;;6.34;62.50;101686.31;5035660;28;20057;-84
2022/01/06 00:47:44;;;;;;;0.10;0.10;;;;;;;6.35;62.26;101681.94;5037301;28;20096;-85
2022/01/06 00:50:11;;;;;;;0.10;0.10;;;;;;;6.33;61.72;101687.19;5036247;28;20060;-86
2022/01/06 00:52:37;;;;;;;0.10;0.10;;;;;;;6.40;61.90;101689.00;5036668;28;20075;-84
2022/01/06 00:55:05;;;;;;;0.10;0.10;;;;;;;6.43;61.80;101691.69;5036588;28;20065;-85
2022/01/06 00:57:31;;;;;;;0.40;0.40;;;;;;;6.44;62.13;101693.47;5036687;28;20555;-84
2022/01/06 00:59:57;;;;;;;0.10;0.10;;;;;;;6.43;61.57;101694.31;5036807;28;20052;-84
2022/01/06 01:02:23;;;;;;;0.10;0.10;;;;;;;6.46;61.48;101696.09;5036644;28;20072;-84
2022/01/06 01:04:49;;;;;;;0.10;0.10;;;;;;;6.55;61.71;101690.06;5036138;28;20037;-84
2022/01/06 01:07:16;;;;;;;34.33;1.95;;;;;;;6.54;61.26;101693.53;5036452;28;20157;-84
2022/01/06 01:09:42;;;;;;;0.10;0.10;;;;;;;6.57;60.95;101694.47;5035887;28;20029;-84
2022/01/06 01:12:08;;;;;;;0.10;0.10;;;;;;;6.61;61.11;101705.91;5036032;28;20021;-85
2022/01/06 01:14:52;;;;;;;0.10;0.10;;;;;;;6.63;61.16;101710.31;5036536;28;20032;-85
2022/01/06 01:17:18;;;;;;;0.10;0.10;;;;;;;6.63;60.44;101709.47;5035878;28;20140;-84
2022/01/06 01:19:45;;;;;;;0.10;0.10;;;;;;;6.67;61.50;101716.50;5036039;28;20036;-85
2022/01/06 01:22:11;;;;;;;0.10;0.10;;;;;;;6.65;60.99;101723.50;5035245;28;20060;-85
2022/01/06 01:24:37;;;;;;;0.10;0.10;;;;;;;6.63;60.37;101712.09;5035347;28;20037;-85
2022/01/06 01:27:05;;;;;;;0.10;0.10;;;;;;;6.61;60.82;101719.09;5035248;28;20033;-85
2022/01/06 01:29:34;;;;;;;0.70;0.70;;;;;;;6.61;60.91;101719.94;5034593;28;20121;-84
2022/01/06 01:32:00;;;;;;;0.10;0.10;;;;;;;6.62;61.26;101713.81;5035174;28;20059;-85
2022/01/06 01:34:28;;;;;;;0.20;0.20;;;;;;;6.60;61.19;101725.22;5035248;28;20069;-84
2022/01/06 01:36:55;;;;;;;0.10;0.10;;;;;;;6.62;60.98;101724.34;5034961;28;20116;-84
2022/01/06 01:39:23;;;;;;;0.10;0.10;;;;;;;6.57;60.19;101728.69;5035861;28;20112;-83
2022/01/06 01:41:50;;;;;;;0.10;0.10;;;;;;;6.62;60.30;101737.53;5034764;28;20025;-84
2022/01/06 01:44:19;;;;;;;0.10;0.10;;;;;;;6.63;60.66;101731.41;5034777;28;20094;-83
2022/01/06 01:46:58;;;;;;;0.10;0.10;;;;;;;6.61;60.92;101733.13;5034215;28;20069;-84
2022/01/06 01:52:07;;;;;;;0.10;0.10;;;;;;;6.64;61.21;101733.16;5071234;28;20394;-83
2022/01/06 01:54:33;;;;;;;0.10;0.10;;;;;;;6.62;60.90;101745.41;5071128;28;20112;-84
2022/01/06 01:56:59;;;;;;;0.10;0.10;;;;;;;6.62;60.40;101739.28;5070949;28;20099;-84
2022/01/06 01:59:25;;;;;;;0.10;0.10;;;;;;;6.60;60.70;101746.28;5070939;28;20032;-85
2022/01/06 02:01:53;;;;;;;0.30;0.30;;;;;;;6.58;61.00;101761.16;5070920;28;20037;-84
2022/01/06 02:04:20;;;;;;;0.10;0.10;;;;;;;6.47;60.17;101769.81;5070927;28;20020;-84
2022/01/06 02:06:46;;;;;;;0.10;0.10;;;;;;;6.53;61.53;101766.41;5070857;28;20108;-84
2022/01/06 02:09:12;;;;;;;0.10;0.10;;;;;;;6.66;61.48;101767.41;5071109;28;20415;-84
2022/01/06 02:11:38;;;;;;;0.20;0.20;;;;;;;6.69;61.31;101762.19;5070943;28;20037;-84
2022/01/06 02:14:06;;;;;;;0.20;0.20;;;;;;;6.73;61.11;101761.34;5070793;28;20033;-84
2022/01/06 02:16:32;;;;;;;0.10;0.10;;;;;;;6.76;60.80;101769.25;5071070;28;20358;-84
2022/01/06 02:18:59;;;;;;;0.47;0.47;;;;;;;6.78;60.84;101767.53;5070727;28;20063;-84
2022/01/06 02:21:25;;;;;;;0.10;0.10;;;;;;;6.82;60.92;101764.94;5070859;28;20036;-84
2022/01/06 02:23:51;;;;;;;0.10;0.10;;;;;;;6.82;60.93;101773.72;5070927;28;20025;-84
2022/01/06 02:26:18;;;;;;;0.10;0.10;;;;;;;6.75;61.23;101772.78;5070860;28;20100;-83
2022/01/06 02:28:45;;;;;;;0.10;0.10;;;;;;;6.81;61.05;101769.31;5070771;28;20510;-84
2022/01/06 02:31:11;;;;;;;0.10;0.10;;;;;;;6.79;61.04;101778.94;5070726;28;20495;-84
2022/01/06 02:33:38;;;;;;;0.10;0.10;;;;;;;6.76;61.52;101785.06;5070116;28;20033;-84
2022/01/06 02:36:05;;;;;;;0.47;0.47;;;;;;;6.79;61.78;101778.94;5070522;28;20028;-84
2022/01/06 02:38:31;;;;;;;0.10;0.10;;;;;;;6.76;62.05;101779.81;5070481;28;20110;-83
2022/01/06 02:40:57;;;;;;;0.10;0.10;;;;;;;6.88;61.80;101793.97;5070737;28;20060;-84
2022/01/06 02:43:25;;;;;;;0.50;0.50;;;;;;;6.83;61.43;101790.41;5070310;28;20095;-84
2022/01/06 02:45:51;;;;;;;0.10;0.10;;;;;;;6.78;61.23;101804.41;5070322;28;20028;-83
2022/01/06 02:48:18;;;;;;;0.10;0.10;;;;;;;6.89;61.49;101816.81;5069991;28;20032;-84
2022/01/06 02:50:47;;;;;;;0.10;0.10;;;;;;;7.00;61.54;101815.19;5070560;28;20041;-85
2022/01/06 02:53:15;;;;;;;0.65;0.65;;;;;;;7.00;61.65;101815.19;5070419;28;20040;-85
2022/01/06 02:55:52;;;;;;;0.08;0.08;;;;;;;6.98;61.90;101806.41;5070514;28;20017;-84
2022/01/06 02:58:19;;;;;;;0.03;0.03;;;;;;;6.97;61.86;101800.22;5069027;28;20033;-84
2022/01/06 03:00:46;;;;;;;0.10;0.10;;;;;;;6.93;62.35;101797.56;5070391;28;20490;-84
2022/01/06 03:03:12;;;;;;;0.10;0.10;;;;;;;6.89;62.43;101791.38;5057161;28;20028;-85
2022/01/06 03:05:38;;;;;;;0.10;0.10;;;;;;;6.85;62.44;101792.19;5057199;28;20025;-85
2022/01/06 03:08:05;;;;;;;0.10;0.10;;;;;;;6.82;62.57;101788.63;5056351;28;20040;-84
2022/01/06 03:10:36;;;;;;;0.10;0.10;;;;;;;6.73;62.76;101795.59;5057288;28;20475;-83
2022/01/06 03:13:03;;;;;;;0.10;0.10;;;;;;;6.66;62.79;101801.66;5057031;28;20029;-84
2022/01/06 03:15:29;;;;;;;0.10;0.10;;;;;;;6.58;63.09;101795.38;5057230;28;20353;-85
2022/01/06 03:17:57;;;;;;;0.20;0.20;;;;;;;6.51;63.10;101797.06;5057057;28;20094;-85
2022/01/06 03:20:25;;;;;;;0.10;0.10;;;;;;;6.40;63.62;101796.06;5057348;28;20032;-85
2022/01/06 03:22:53;;;;;;;0.10;0.10;;;;;;;6.33;63.33;101795.13;5055698;28;20032;-85
2022/01/06 03:25:20;;;;;;;0.13;0.13;;;;;;;6.26;63.62;101795.91;5056476;28;20025;-85
2022/01/06 03:27:46;;;;;;;0.10;0.10;;;;;;;6.18;63.49;101795.81;5055513;28;20111;-85
2022/01/06 03:30:16;;;;;;;0.10;0.10;;;;;;;6.13;63.96;101795.72;5056733;28;20051;-85
2022/01/06 03:32:42;;;;;;;0.88;0.88;;;;;;;6.06;64.03;101796.50;5055630;28;20075;-84
2022/01/06 03:35:12;;;;;;;0.10;0.10;;;;;;;6.03;63.89;101796.47;5056918;28;20437;-85
2022/01/06 03:37:39;;;;;;;0.10;0.10;;;;;;;5.97;64.49;101798.97;5056425;28;20033;-85
2022/01/06 03:40:07;;;;;;;0.10;0.10;;;;;;;5.94;64.40;101791.94;5056209;28;20029;-85
2022/01/06 03:42:34;;;;;;;0.10;0.10;;;;;;;5.92;64.25;101801.53;5055907;28;20380;-84
2022/01/06 03:45:02;;;;;;;0.10;0.10;;;;;;;5.86;64.30;101800.53;5055925;28;20029;-84
2022/01/06 03:47:28;;;;;;;0.10;0.10;;;;;;;5.79;64.22;101807.47;5056495;28;20040;-85
2022/01/06 03:49:54;;;;;;;0.10;0.10;;;;;;;5.72;64.86;101817.03;5055383;28;20039;-84
2022/01/06 03:52:21;;;;;;;0.10;0.10;;;;;;;5.69;65.13;101806.44;5056902;28;20033;-85
2022/01/06 03:54:47;;;;;;;0.10;0.10;;;;;;;5.67;65.30;101813.44;5055790;28;20108;-85
2022/01/06 03:57:13;;;;;;;0.10;0.10;;;;;;;5.65;65.58;101820.41;5054945;28;20078;-85
2022/01/06 03:59:39;;;;;;;0.10;0.10;;;;;;;5.63;65.89;101816.84;5055336;28;20033;-85
2022/01/06 04:02:05;;;;;;;0.10;0.10;;;;;;;5.64;66.12;101823.88;5055762;28;20025;-85
2022/01/06 04:04:31;;;;;;;0.10;0.10;;;;;;;5.73;65.38;101833.66;5055557;28;20037;-84
2022/01/06 04:06:58;;;;;;;0.10;0.10;;;;;;;5.74;65.47;101838.94;5056226;28;20037;-84
2022/01/06 04:09:24;;;;;;;0.10;0.10;;;;;;;5.81;65.44;101832.94;5055541;28;20112;-85
2022/01/06 04:11:50;;;;;;;0.10;0.10;;;;;;;5.86;64.99;101840.00;5055313;28;20494;-84
2022/01/06 04:14:16;;;;;;;0.10;0.10;;;;;;;5.91;64.78;101833.09;5054129;28;20032;-84
2022/01/06 04:16:42;;;;;;;0.20;0.20;;;;;;;5.88;65.21;101827.75;5055712;28;20415;-84
2022/01/06 04:19:09;;;;;;;0.10;0.10;;;;;;;5.93;64.71;101828.72;5055270;28;20040;-84
2022/01/06 04:21:35;;;;;;;0.10;0.10;;;;;;;5.92;64.55;101835.72;5055750;28;20112;-85
2022/01/06 04:24:02;;;;;;;0.10;0.10;;;;;;;5.94;64.72;101838.38;5054936;28;20033;-85
2022/01/06 04:26:28;;;;;;;0.10;0.10;;;;;;;5.90;65.19;101845.34;5055757;28;20029;-84
2022/01/06 04:28:55;;;;;;;0.20;0.20;;;;;;;5.93;65.17;101847.13;5053793;28;20029;-85
2022/01/06 04:31:21;;;;;;;0.10;0.10;;;;;;;5.89;65.33;101850.56;5055083;28;20025;-83
2022/01/06 04:33:47;;;;;;;0.10;0.10;;;;;;;5.88;65.95;101843.53;5050046;22;20099;-79
2022/01/06 04:36:14;;;;;;;0.10;0.10;;;;;;;5.97;65.15;101838.44;5014494;28;20088;-79
2022/01/06 04:38:40;;;;;;;0.10;0.10;;;;;;;6.03;65.21;101848.19;5014661;28;20037;-79
2022/01/06 04:41:06;;;;;;;0.10;0.10;;;;;;;6.01;65.04;101842.91;5014526;28;20058;-80
2022/01/06 04:43:32;;;;;;;0.13;0.13;;;;;;;5.98;65.19;101845.44;5014820;28;20060;-80
2022/01/06 04:45:59;;;;;;;0.10;0.10;;;;;;;6.00;64.49;101856.91;5014409;28;20037;-79
2022/01/06 04:48:25;;;;;;;0.10;0.10;;;;;;;5.98;64.66;101853.34;5014370;28;20040;-79
2022/01/06 04:50:51;;;;;;;0.10;0.10;;;;;;;5.95;64.74;101861.19;5014366;28;20513;-79
2022/01/06 04:53:17;;;;;;;0.32;0.32;;;;;;;5.94;64.70;101859.41;5014220;28;20033;-79
2022/01/06 04:55:43;;;;;;;0.10;0.10;;;;;;;5.94;64.64;101859.41;5014315;28;20105;-80
2022/01/06 04:58:10;;;;;;;0.10;0.10;;;;;;;5.87;64.83;101862.81;5014408;28;20069;-79
2022/01/06 05:00:36;;;;;;;0.10;0.10;;;;;;;5.80;65.17;101865.34;5014260;28;20034;-79
2022/01/06 05:03:02;;;;;;;0.20;0.20;;;;;;;5.80;65.28;101857.44;5014323;28;20405;-79
2022/01/06 05:05:28;;;;;;;0.10;0.10;;;;;;;5.78;65.13;101858.28;5014159;28;20109;-80
2022/01/06 05:07:54;;;;;;;0.10;0.10;;;;;;;5.77;65.10;101870.56;5014168;28;20400;-79
2022/01/06 05:10:20;;;;;;;0.17;0.17;;;;;;;5.74;64.80;101873.13;5014040;28;20030;-79
2022/01/06 05:12:46;;;;;;;0.10;0.10;;;;;;;5.74;65.14;101875.75;5014400;28;20038;-79
2022/01/06 05:15:13;;;;;;;0.10;0.10;;;;;;;5.72;64.95;101871.34;5013916;28;20033;-79
2022/01/06 05:17:41;;;;;;;0.15;0.15;;;;;;;5.71;64.85;101877.44;5014180;28;20030;-79
2022/01/06 05:20:08;;;;;;;0.10;0.10;;;;;;;5.72;65.01;101874.88;5014047;28;20030;-79
2022/01/06 05:22:41;;;;;;;0.10;0.10;;;;;;;5.72;65.03;101873.97;5014117;28;20383;-79
2022/01/06 05:25:08;;;;;;;0.10;0.10;;;;;;;5.64;65.40;101887.84;5013916;28;20030;-80
2022/01/06 05:27:34;;;;;;;0.10;0.10;;;;;;;5.66;65.46;101885.28;5013944;28;20062;-79
2022/01/06 05:30:00;;;;;;;0.10;0.10;;;;;;;5.67;65.39;101893.19;5013682;28;20037;-78
2022/01/06 05:32:26;;;;;;;0.10;0.10;;;;;;;5.68;65.45;101886.16;5013854;28;20079;-79
2022/01/06 05:34:53;;;;;;;0.20;0.20;;;;;;;5.70;65.40;101891.47;5012168;28;20052;-79
2022/01/06 05:37:19;;;;;;;0.20;0.20;;;;;;;5.66;65.19;101890.53;5013920;28;20034;-79
2022/01/06 05:39:45;;;;;;;0.10;0.10;;;;;;;5.66;65.17;101883.53;5013761;28;20032;-80
2022/01/06 05:42:13;;;;;;;0.20;0.20;;;;;;;5.62;65.37;101893.94;5013753;28;20033;-79
2022/01/06 05:44:41;;;;;;;0.35;0.20;;;;;;;5.62;65.58;101878.19;5013472;28;20038;-79
2022/01/06 05:47:07;;;;;;;0.13;0.13;;;;;;;5.63;65.53;101887.84;5013827;28;20092;-79
2022/01/06 05:49:34;;;;;;;0.10;0.10;;;;;;;5.61;65.32;101889.59;5013515;28;20130;-79
2022/01/06 05:52:00;;;;;;;0.10;0.10;;;;;;;5.63;65.23;101890.47;5013709;28;20030;-80
2022/01/06 05:54:26;;;;;;;0.10;0.10;;;;;;;5.63;65.53;101898.34;5013739;28;20117;-79
2022/01/06 05:56:52;;;;;;;0.13;0.13;;;;;;;5.61;65.00;101897.47;5013561;28;20034;-79
2022/01/06 05:59:18;;;;;;;0.10;0.10;;;;;;;5.57;65.09;101901.78;5013321;28;20057;-79
2022/01/06 06:01:46;;;;;;;0.10;0.10;;;;;;;5.57;64.73;101911.41;5013752;28;20064;-79
2022/01/06 06:04:12;;;;;;;0.10;0.10;;;;;;;5.54;64.83;101906.09;5027534;23;20053;-84
2022/01/06 06:06:38;;;;;;;0.10;0.10;;;;;;;5.47;64.90;101916.50;5013301;28;20076;-84
2022/01/06 06:09:06;;;;;;;0.15;0.15;;;;;;;5.43;65.01;101916.41;5013620;28;20113;-83
2022/01/06 06:11:32;;;;;;;0.20;0.20;;;;;;;5.40;65.04;101916.38;5013131;28;20034;-83
2022/01/06 06:13:58;;;;;;;0.20;0.20;;;;;;;5.37;64.94;101914.56;5013364;28;20029;-85
2022/01/06 06:16:24;;;;;;;0.10;0.10;;;;;;;5.33;65.01;101920.59;5013408;28;20036;-84
2022/01/06 06:18:51;;;;;;;0.10;0.10;;;;;;;5.27;64.91;101916.13;5013506;28;20544;-85
2022/01/06 06:21:17;;;;;;;0.10;0.10;;;;;;;5.23;64.92;101916.03;5013288;28;20059;-85
2022/01/06 06:23:43;;;;;;;0.10;0.10;;;;;;;5.17;65.31;101930.81;5013616;28;20030;-85
2022/01/06 06:26:09;;;;;;;0.10;0.10;;;;;;;5.10;64.95;101931.56;5013148;28;20358;-85
2022/01/06 06:28:35;;;;;;;0.10;0.10;;;;;;;5.01;65.16;101932.25;5013241;28;20037;-85
2022/01/06 06:31:01;;;;;;;0.10;0.10;;;;;;;4.97;65.60;101937.41;5013164;28;20042;-85
2022/01/06 06:33:27;;;;;;;0.10;0.10;;;;;;;4.95;65.56;101937.38;5011879;28;20486;-85
2022/01/06 06:35:53;;;;;;;0.20;0.20;;;;;;;4.92;65.51;101937.34;5013134;28;20390;-85
2022/01/06 06:38:20;;;;;;;0.10;0.10;;;;;;;4.91;65.58;101945.16;5016116;28;20180;-84
2022/01/06 06:40:46;;;;;;;0.10;0.10;;;;;;;4.89;66.02;101936.38;5016855;28;20025;-84
2022/01/06 06:43:14;;;;;;;0.10;0.10;;;;;;;4.87;65.96;101944.19;5016917;28;20073;-85
2022/01/06 06:45:41;;;;;;;0.10;0.10;;;;;;;4.82;65.89;101949.38;5016842;28;20060;-85
2022/01/06 06:48:08;;;;;;;0.10;0.10;;;;;;;4.78;65.85;101952.78;5016977;28;20087;-85
2022/01/06 06:50:34;;;;;;;0.10;0.10;;;;;;;4.73;66.08;101951.78;5016784;28;20030;-85
2022/01/06 06:53:02;;;;;;;0.20;0.20;;;;;;;4.69;66.13;101956.06;5016561;28;20104;-85
2022/01/06 06:55:29;;;;;;;0.10;0.10;;;;;;;4.63;66.78;101953.31;5016711;28;20029;-85
2022/01/06 06:57:55;;;;;;;0.10;0.10;;;;;;;4.63;65.97;101955.06;5016206;28;20045;-83
2022/01/06 07:00:21;;;;;;;0.10;0.10;;;;;;;4.63;66.08;101966.44;5016712;28;20104;-84
2022/01/06 07:02:48;;;;;;;0.20;0.20;;;;;;;4.62;66.94;101963.78;5016252;28;20033;-84
2022/01/06 07:05:15;;;;;;;0.10;0.10;;;;;;;4.61;66.38;101962.91;5016633;28;20392;-85
2022/01/06 07:07:43;;;;;;;0.20;0.20;;;;;;;4.63;66.35;101965.56;5016567;28;20036;-85
2022/01/06 07:10:09;;;;;;;0.20;0.20;;;;;;;4.63;66.71;101970.81;5016172;28;20088;-85
2022/01/06 07:12:44;;;;;;;0.20;0.20;;;;;;;4.68;66.46;101969.19;5016309;28;20544;-85
2022/01/06 07:15:13;;;;;;;0.20;0.20;;;;;;;4.61;66.91;101970.78;5016333;28;20205;-85
2022/01/06 07:17:39;;;;;;;0.10;0.10;;;;;;;4.61;66.82;101962.91;5016472;28;20022;-85
2022/01/06 07:20:07;;;;;;;0.63;0.63;;;;;;;4.62;66.24;101958.53;5016171;28;20405;-85
2022/01/06 07:22:33;;;;;;;0.10;0.10;;;;;;;4.57;66.48;101960.19;5016051;28;20058;-85
2022/01/06 07:25:01;;;;;;;0.10;0.10;;;;;;;4.50;67.28;101964.41;5015054;28;20109;-85
2022/01/06 07:27:27;;;;;;;0.15;0.15;;;;;;;4.47;66.89;101974.81;5016150;28;20109;-85
2022/01/06 07:29:53;;;;;;;0.10;0.10;;;;;;;4.45;66.64;101973.88;5015838;28;20104;-85
2022/01/06 07:32:19;;;;;;;0.10;0.10;;;;;;;4.44;66.94;101982.63;5016005;28;20092;-85
2022/01/06 07:34:45;;;;;;;0.10;0.10;;;;;;;4.46;67.38;101976.56;5015966;28;20030;-84
2022/01/06 07:37:12;;;;;;;0.20;0.20;;;;;;;4.45;67.05;101981.75;5015832;28;20091;-85
2022/01/06 07:39:38;;;;;;;0.20;0.20;;;;;;;4.43;67.48;101975.59;5015973;28;20026;-85
2022/01/06 07:42:05;;;;;;;0.10;0.10;;;;;;;4.44;67.12;101985.25;5015738;28;20029;-85
2022/01/06 07:44:31;;;;;;;0.20;0.20;;;;;;;4.42;67.08;101986.94;5015775;28;20025;-84
2022/01/06 07:46:59;;;;;;;0.20;0.20;;;;;;;4.37;67.74;101995.59;5015498;28;20026;-85
2022/01/06 07:49:26;;;;;;;0.10;0.10;;;;;;;4.39;67.42;101987.78;5015337;28;20073;-86
2022/01/06 07:51:53;;;;;;;0.13;0.13;;;;;;;4.39;67.13;101987.78;5015171;28;20037;-87
2022/01/06 07:54:20;;;;;;;0.10;0.10;;;;;;;4.41;67.47;101991.31;5014086;28;20026;-85
2022/01/06 07:56:46;;;;;;;0.10;0.10;;;;;;;4.42;67.51;101987.81;5015436;28;20038;-85
2022/01/06 07:59:12;;;;;;;0.10;0.10;;;;;;;4.42;67.54;101993.06;5014933;28;20462;-84
2022/01/06 08:01:39;;;;;;;0.13;0.13;;;;;;;4.41;67.52;102000.91;5015000;28;20034;-86
2022/01/06 08:04:05;;;;;;;0.10;0.10;;;;;;;4.39;67.63;102000.88;5014974;28;20477;-85
2022/01/06 08:06:31;;;;;;;0.10;0.10;;;;;;;4.42;67.08;102008.81;5015082;28;20507;-87
2022/01/06 08:08:58;;;;;;;0.10;0.10;;;;;;;4.42;66.94;102008.81;5015309;28;20494;-87
2022/01/06 08:11:24;;;;;;;0.10;0.10;;;;;;;4.43;67.31;102014.97;5014963;28;20481;-86
2022/01/06 08:13:50;;;;;;;0.10;0.10;;;;;;;4.46;67.25;102021.19;5015007;28;20045;-86
2022/01/06 08:16:16;;;;;;;0.20;0.20;;;;;;;4.48;67.71;102024.72;5014842;28;20450;-86
2022/01/06 08:18:42;;;;;;;0.10;0.10;;;;;;;4.53;67.00;102017.84;5014970;28;20030;-86
2022/01/06 08:21:08;;;;;;;0.10;0.10;;;;;;;4.52;67.62;102021.34;5014946;28;20500;-86
2022/01/06 08:23:35;;;;;;;0.10;0.10;;;;;;;4.54;67.57;102019.63;5014836;28;20117;-86
2022/01/06 08:26:01;;;;;;;0.10;0.10;;;;;;;4.55;67.58;102023.16;5015000;28;20458;-86
2022/01/06 08:28:27;;;;;;;0.17;0.17;;;;;;;4.62;67.17;102021.53;5014746;28;20470;-87
2022/01/06 08:30:53;;;;;;;0.10;0.10;;;;;;;4.64;67.32;102025.09;5014730;28;20500;-87
2022/01/06 08:33:19;;;;;;;0.10;0.10;;;;;;;4.66;67.13;102026.91;5015581;28;20026;-86
2022/01/06 08:35:46;;;;;;;0.10;0.10;;;;;;;4.68;67.31;102033.06;5016167;28;20033;-86
2022/01/06 08:38:12;;;;;;;0.10;0.10;;;;;;;4.72;67.74;102028.78;5014716;28;20061;-86
2022/01/06 08:40:38;;;;;;;0.17;0.17;;;;;;;4.78;67.86;102034.16;5014766;28;20026;-86
2022/01/06 08:43:04;;;;;;;0.20;0.20;;;;;;;4.83;67.89;102037.78;5014586;28;20120;-86
2022/01/06 08:45:32;;;;;;;0.20;0.20;;;;;;;4.93;67.70;102041.50;5014623;28;20120;-86
2022/01/06 08:47:59;;;;;;;0.10;0.10;;;;;;;5.02;67.79;102038.19;5014396;28;20026;-85
2022/01/06 08:50:25;;;;;;;0.10;0.10;;;;;;;5.12;67.46;102037.56;5014869;28;20065;-85
2022/01/06 08:52:51;;;;;;;0.13;0.13;;;;;;;5.16;67.47;102036.78;5014357;28;20033;-86
2022/01/06 08:55:17;;;;;;;0.20;0.20;;;;;;;5.23;67.68;102036.91;5012999;28;20030;-85
2022/01/06 08:57:43;;;;;;;0.20;0.20;;;;;;;5.26;67.18;102029.06;5014249;28;20022;-85
2022/01/06 09:00:11;;;;;;;0.10;0.10;;;;;;;5.27;67.17;102029.13;5014180;28;20063;-86
2022/01/06 09:02:39;;;;;;;0.10;0.10;;;;;;;5.32;67.14;102023.94;5014280;28;20026;-89
2022/01/06 09:05:06;;;;;;;0.10;0.10;;;;;;;5.29;67.03;102026.53;5013947;28;20034;-86
2022/01/06 09:07:34;;;;;;;0.10;0.10;;;;;;;5.29;66.70;102021.25;5014126;28;20034;-86
2022/01/06 09:10:07;;;;;;;0.10;0.10;;;;;;;5.31;66.98;102030.09;5014044;28;20121;-85
2022/01/06 09:12:33;;;;;;;0.10;0.10;;;;;;;5.33;66.59;102028.34;5013968;28;20504;-86
2022/01/06 09:14:59;;;;;;;0.10;0.10;;;;;;;5.38;66.96;102026.69;5013794;28;20026;-85
2022/01/06 09:17:25;;;;;;;0.10;0.10;;;;;;;5.41;66.46;102033.75;5013864;28;20037;-85
2022/01/06 09:19:51;;;;;;;0.13;0.13;;;;;;;5.40;66.64;102032.00;5013939;28;20034;-85
2022/01/06 09:22:17;;;;;;;0.13;0.13;;;;;;;5.44;66.53;102032.09;5013771;28;20034;-85
2022/01/06 09:24:43;;;;;;;0.10;0.10;;;;;;;5.51;66.63;102033.13;5013817;28;20478;-85
2022/01/06 09:27:10;;;;;;;0.10;0.10;;;;;;;5.49;66.64;102030.44;5013795;28;20108;-85
2022/01/06 09:29:36;;;;;;;0.20;0.20;;;;;;;5.54;66.62;102029.66;5013884;28;20045;-84
2022/01/06 09:32:02;;;;;;;0.10;0.10;;;;;;;5.62;66.41;102035.94;5013468;28;20482;-84
2022/01/06 09:34:28;;;;;;;0.10;0.10;;;;;;;5.69;66.58;102037.84;5013655;28;20061;-85
2022/01/06 09:36:54;;;;;;;0.10;0.10;;;;;;;5.71;66.60;102037.84;5013764;28;20364;-86
2022/01/06 09:39:21;;;;;;;0.20;0.20;;;;;;;5.76;66.63;102034.47;5013730;28;20038;-86
2022/01/06 09:41:48;;;;;;;0.10;0.10;;;;;;;5.79;66.34;102039.78;5012723;28;20038;-84
2022/01/06 09:44:14;;;;;;;0.10;0.10;;;;;;;5.87;66.54;102036.41;5013627;28;20053;-85
2022/01/06 09:46:42;;;;;;;0.95;0.95;;;;;;;5.94;66.43;102048.81;5013723;28;20069;-85
2022/01/06 09:49:08;;;;;;;0.20;0.20;;;;;;;5.94;66.43;102048.81;5013674;28;20022;-85
2022/01/06 09:51:34;;;;;;;0.10;0.10;;;;;;;6.03;66.43;102049.03;5013609;28;20492;-85
2022/01/06 09:54:01;;;;;;;0.20;0.20;;;;;;;6.13;66.43;102048.34;5013224;28;20029;-85
2022/01/06 09:56:29;;;;;;;0.10;0.10;;;;;;;6.23;66.32;102053.75;5013625;28;20202;-85
2022/01/06 09:58:56;;;;;;;0.10;0.10;;;;;;;6.20;66.59;102051.09;5013559;28;20032;-85
2022/01/06 10:01:23;;;;;;;0.20;0.20;;;;;;;6.29;66.08;102051.22;5013594;28;20034;-85
2022/01/06 10:03:49;;;;;;;0.10;0.10;;;;;;;6.39;66.12;102052.28;5013161;28;20577;-85
2022/01/06 10:09:05;;;;;;;0.13;0.13;;;;;;;6.46;66.08;102052.41;5071748;27;2493794;-84
2022/01/06 10:11:34;;;;;;;0.10;0.10;;;;;;;6.58;66.05;102053.44;5131656;27;20131;-84
2022/01/06 10:14:06;;;;;;;0.10;0.10;;;;;;;6.70;65.92;102055.41;5120303;27;20394;-85
2022/01/06 10:16:33;;;;;;;0.10;0.10;;;;;;;6.76;66.02;102048.47;5111227;28;20032;-85
2022/01/06 10:19:06;;;;;;;0.10;0.10;;;;;;;6.83;65.88;102056.47;5110992;28;20114;-85
2022/01/06 10:21:37;;;;;;;0.10;0.10;;;;;;;6.82;65.40;102052.06;5110958;28;20028;-84
2022/01/06 10:24:08;;;;;;;0.10;0.10;;;;;;;6.93;65.62;102053.13;5110880;28;20024;-85
2022/01/06 10:26:36;;;;;;;0.28;0.28;;;;;;;6.98;65.63;102051.44;5110773;28;20379;-85
2022/01/06 10:29:07;;;;;;;0.10;0.10;;;;;;;7.03;65.57;102051.50;5110942;28;20020;-85
2022/01/06 10:31:34;;;;;;;0.10;0.10;;;;;;;7.03;65.21;102051.50;5110965;28;20081;-84
2022/01/06 10:34:05;;;;;;;0.10;0.10;;;;;;;7.08;65.37;102050.69;5111101;28;20024;-85
2022/01/06 10:36:32;;;;;;;0.43;0.43;;;;;;;7.06;65.45;102047.16;5110718;28;20032;-84
2022/01/06 10:39:01;;;;;;;0.10;0.10;;;;;;;7.12;65.38;102039.31;5110913;28;20035;-85
2022/01/06 10:41:28;;;;;;;0.10;0.10;;;;;;;7.10;65.43;102035.81;5109474;28;20028;-85
2022/01/06 10:43:58;;;;;;;0.10;0.10;;;;;;;7.16;65.13;102037.63;5110562;28;20390;-84
2022/01/06 10:46:41;;;;;;;0.10;0.10;;;;;;;7.26;65.53;102042.19;5110587;28;20117;-84
2022/01/06 10:49:11;;;;;;;0.10;0.10;;;;;;;7.23;65.38;102036.84;5110817;28;20116;-84
2022/01/06 10:54:23;;;;;;;0.10;0.10;;;;;;;7.34;65.20;102029.09;5077275;28;20857;-84
2022/01/06 10:59:37;;;;;;;0.10;0.10;;;;;;;7.54;65.52;102038.97;5090912;28;20252;-84
2022/01/06 11:02:05;;;;;;;0.10;0.10;;;;;;;7.63;65.23;102031.19;5070687;28;20037;-85
2022/01/06 11:04:32;;;;;;;0.55;0.55;;;;;;;7.70;65.31;102030.38;5055506;28;20386;-84
2022/01/06 11:06:58;;;;;;;0.17;0.17;;;;;;;7.81;64.99;102027.84;5050710;28;20041;-84
2022/01/06 11:09:29;;;;;;;0.10;0.10;;;;;;;7.95;65.10;102022.72;5050395;28;20037;-84
2022/01/06 11:14:56;;;;;;;0.10;0.10;;;;;;;8.31;65.22;102023.94;5052278;28;20984;-84
2022/01/06 11:17:24;;;;;;;0.10;0.10;;;;;;;8.51;64.42;102020.56;5050612;28;20160;-84
2022/01/06 11:19:51;;;;;;;0.10;0.10;;;;;;;8.71;64.36;102024.25;5050828;28;20025;-84
2022/01/06 11:22:24;;;;;;;0.10;0.10;;;;;;;8.84;63.62;102021.69;5050384;28;20052;-85
2022/01/06 11:25:00;;;;;;;2.40;1.65;;;;;;;9.07;63.15;102022.72;5050622;28;20473;-84
2022/01/06 11:27:32;;;;;;;0.20;0.20;;;;;;;9.16;63.52;102023.59;5050534;28;20026;-84
2022/01/06 11:32:58;;;;;;;0.10;0.10;;;;;;;9.27;61.79;102024.56;5048868;28;20413;-85
2022/01/06 11:35:24;;;;;;;0.28;0.28;;;;;;;9.27;62.16;102024.56;5031439;28;20485;-84
2022/01/06 11:37:52;;;;;;;0.10;0.10;;;;;;;9.23;61.77;102018.38;5030641;28;20113;-85
2022/01/06 11:40:35;;;;;;;0.20;0.20;;;;;;;9.30;61.92;102019.28;5030772;28;20057;-84
2022/01/06 11:43:01;;;;;;;0.10;0.10;;;;;;;9.20;60.37;102018.34;5030352;28;20122;-85
2022/01/06 11:45:27;;;;;;;0.10;0.10;;;;;;;9.28;60.80;102017.50;5030747;28;20037;-85
2022/01/06 11:50:40;;;;;;;0.10;0.10;;;;;;;9.25;60.72;102015.75;5116962;27;1231001;-85
2022/01/06 11:53:08;;;;;;;0.80;0.80;;;;;;;9.09;59.37;102013.91;5128437;27;20028;-85
2022/01/06 11:55:37;;;;;;;0.10;0.10;;;;;;;9.06;59.56;102012.13;5111094;28;20024;-85
2022/01/06 11:58:21;;;;;;;0.10;0.10;;;;;;;9.13;59.68;102018.31;5111216;28;20032;-85
2022/01/06 12:01:05;;;;;;;0.63;0.63;;;;;;;9.05;58.94;102013.88;5111478;28;20031;-85
2022/01/06 12:03:41;;;;;;;0.10;0.10;;;;;;;8.94;58.78;102015.56;5111619;28;20093;-86